Time;durP1;ratioP1;P1;durP2;ratioP2;P2;SDS_P1;SDS_P2;PMS_P1;PMS_P2;Temp;Humidity;BMP_temperature;BMP_pressure;BME280_temperature;BME280_humidity;BME280_pressure;Samples;Min_cycle;Max_cycle;Signal;HPM_P1;HPM_P2
2023/07/28 00:02:17;;;;;;;3.37;1.60;;;;;;;18.85;46.78;101080.38;5032880;28;20443;-74
2023/07/28 00:04:43;;;;;;;3.23;2.03;;;;;;;18.87;46.66;101077.47;5032773;28;20854;-75
2023/07/28 00:07:08;;;;;;;3.53;1.80;;;;;;;18.90;46.82;101082.41;5032928;28;20523;-75
2023/07/28 00:09:34;;;;;;;3.30;1.80;;;;;;;18.82;47.00;101082.69;5033046;28;20382;-75
2023/07/28 00:12:00;;;;;;;3.17;1.90;;;;;;;18.77;47.07;101077.09;5032710;28;20394;-75
2023/07/28 00:14:27;;;;;;;4.07;1.67;;;;;;;18.66;47.37;101078.59;5032833;28;20755;-75
2023/07/28 00:16:54;;;;;;;4.95;1.92;;;;;;;18.57;47.41;101075.34;5031757;28;20811;-74
2023/07/28 00:19:23;;;;;;;3.23;1.90;;;;;;;18.60;47.26;101091.03;5032794;28;20461;-75
2023/07/28 00:21:49;;;;;;;3.15;1.77;;;;;;;18.51;47.67;101082.38;5032662;28;20401;-75
2023/07/28 00:24:15;;;;;;;3.00;1.83;;;;;;;18.38;48.09;101076.25;5032692;28;20378;-76
2023/07/28 00:26:40;;;;;;;3.38;1.90;;;;;;;18.42;47.97;101081.00;5032196;28;20469;-74
2023/07/28 00:29:07;;;;;;;3.33;1.87;;;;;;;18.46;47.84;101078.69;5032392;28;20386;-75
2023/07/28 00:31:33;;;;;;;6.80;2.00;;;;;;;18.54;47.52;101078.44;5032899;28;20401;-75
2023/07/28 00:33:58;;;;;;;4.10;1.90;;;;;;;18.51;47.69;101071.66;5032712;28;20827;-75
2023/07/28 00:36:24;;;;;;;4.05;1.80;;;;;;;18.45;47.92;101077.84;5032147;28;20405;-74
2023/07/28 00:38:49;;;;;;;3.60;2.07;;;;;;;18.46;47.93;101076.00;5032065;28;20454;-74
2023/07/28 00:41:15;;;;;;;4.03;2.20;;;;;;;18.48;48.10;101079.31;5030994;28;20394;-75
2023/07/28 00:43:40;;;;;;;4.73;2.00;;;;;;;18.39;48.30;101076.03;5032127;28;20461;-74
2023/07/28 00:46:06;;;;;;;3.37;1.90;;;;;;;18.36;48.52;101083.69;5032011;28;20485;-75
2023/07/28 00:48:32;;;;;;;2.90;2.00;;;;;;;18.31;48.69;101085.16;5032393;28;20378;-75
2023/07/28 00:50:58;;;;;;;4.10;2.03;;;;;;;18.43;48.10;101084.50;5032054;28;20382;-75
2023/07/28 00:53:24;;;;;;;2.97;1.90;;;;;;;18.56;47.75;101081.72;5031952;28;20383;-74
2023/07/28 00:55:51;;;;;;;3.65;2.10;;;;;;;18.55;47.74;101088.16;5031678;28;20413;-74
2023/07/28 00:58:16;;;;;;;3.55;1.88;;;;;;;18.38;48.17;101085.13;5031596;28;20406;-74
2023/07/28 01:00:42;;;;;;;3.10;2.00;;;;;;;18.31;48.40;101078.94;5031762;28;20739;-74
2023/07/28 01:03:07;;;;;;;3.65;1.90;;;;;;;18.33;48.25;101088.44;5031785;28;20374;-75
2023/07/28 01:05:41;;;;;;;3.97;1.80;;;;;;;18.42;48.02;101077.47;5031557;28;20402;-74
2023/07/28 01:08:19;;;;;;;5.70;1.90;;;;;;;18.50;47.65;101077.22;5031613;28;20409;-74
2023/07/28 01:10:44;;;;;;;3.17;1.80;;;;;;;18.55;47.73;101080.09;5031610;28;20384;-74
2023/07/28 01:13:10;;;;;;;4.27;1.80;;;;;;;18.48;47.61;101080.13;5031559;28;20461;-74
2023/07/28 01:15:35;;;;;;;4.87;1.90;;;;;;;18.36;47.89;101079.13;5031559;28;20720;-74
2023/07/28 01:18:01;;;;;;;3.37;2.00;;;;;;;18.26;48.18;101084.97;5031545;28;20929;-74
2023/07/28 01:20:31;;;;;;;3.37;1.87;;;;;;;18.29;48.05;101079.19;5031528;28;20486;-75
2023/07/28 01:23:14;;;;;;;4.10;2.03;;;;;;;18.36;47.59;101065.72;5031275;28;20378;-75
2023/07/28 01:26:03;;;;;;;4.22;1.80;;;;;;;18.35;47.73;101069.47;5032317;28;20430;-74
2023/07/28 01:28:29;;;;;;;5.13;1.98;;;;;;;18.37;47.70;101066.56;5031881;28;20401;-74
2023/07/28 01:30:54;;;;;;;4.97;1.80;;;;;;;18.33;47.53;101066.16;5031199;28;20731;-74
2023/07/28 01:33:20;;;;;;;3.50;1.93;;;;;;;18.29;47.88;101073.81;5031168;28;20445;-74
2023/07/28 01:35:45;;;;;;;4.93;1.90;;;;;;;18.21;48.22;101076.72;5031146;28;20379;-74
2023/07/28 01:38:12;;;;;;;3.35;1.70;;;;;;;18.11;48.55;101069.13;5029853;28;20379;-74
2023/07/28 01:40:38;;;;;;;4.85;1.90;;;;;;;17.91;49.37;101082.56;5031059;28;20375;-75
2023/07/28 01:43:03;;;;;;;4.83;1.97;;;;;;;17.63;50.33;101088.16;5031368;28;20865;-74
2023/07/28 01:45:29;;;;;;;4.47;2.40;;;;;;;17.64;50.19;101087.13;5030963;28;20403;-74
2023/07/28 01:47:54;;;;;;;4.20;2.00;;;;;;;17.54;50.51;101086.72;5030899;28;20485;-74
2023/07/28 01:50:20;;;;;;;5.57;2.20;;;;;;;17.49;50.50;101081.16;5030256;28;20375;-74
2023/07/28 01:52:45;;;;;;;4.65;1.90;;;;;;;17.51;50.34;101079.91;5030675;28;20389;-74
2023/07/28 01:55:11;;;;;;;4.37;2.10;;;;;;;17.52;50.25;101089.63;5030850;28;20382;-75
2023/07/28 01:57:39;;;;;;;6.00;2.50;;;;;;;17.32;51.06;101086.09;5030722;28;20406;-75
2023/07/28 02:00:05;;;;;;;5.15;2.33;;;;;;;17.05;51.87;101086.09;5029822;28;20401;-75
2023/07/28 02:02:31;;;;;;;3.83;2.00;;;;;;;16.94;52.22;101089.34;5030700;28;20787;-75
2023/07/28 02:04:56;;;;;;;4.07;2.05;;;;;;;16.91;52.27;101087.91;5030654;28;20555;-76
2023/07/28 02:07:22;;;;;;;4.90;2.20;;;;;;;16.92;52.32;101091.41;5030376;28;20379;-75
2023/07/28 02:09:47;;;;;;;5.40;2.20;;;;;;;16.65;53.39;101102.00;5030623;28;20381;-74
2023/07/28 02:12:13;;;;;;;3.80;1.90;;;;;;;16.42;54.04;101097.81;5030738;28;20872;-74
2023/07/28 02:14:38;;;;;;;5.77;2.40;;;;;;;16.38;54.08;101093.03;5029585;28;20374;-75
2023/07/28 02:17:04;;;;;;;6.50;2.43;;;;;;;16.50;53.88;101095.97;5030642;28;20385;-75
2023/07/28 02:19:29;;;;;;;5.13;2.10;;;;;;;16.46;53.81;101100.06;5030975;28;20847;-75
2023/07/28 02:21:55;;;;;;;4.83;2.20;;;;;;;16.65;53.20;101103.84;5030317;28;20374;-75
2023/07/28 02:24:20;;;;;;;5.47;2.30;;;;;;;16.69;53.24;101110.44;5030756;28;20369;-75
2023/07/28 02:26:46;;;;;;;4.90;2.07;;;;;;;16.54;53.48;101105.25;5030374;28;20434;-75
2023/07/28 02:29:11;;;;;;;7.50;2.43;;;;;;;16.60;53.50;101115.16;5030375;28;20421;-75
2023/07/28 02:31:37;;;;;;;4.70;2.17;;;;;;;16.56;53.61;101106.69;5030387;28;20390;-75
2023/07/28 02:34:02;;;;;;;5.03;2.30;;;;;;;16.62;53.32;101121.16;5030392;28;20382;-75
2023/07/28 02:36:28;;;;;;;6.53;2.70;;;;;;;16.48;53.87;101124.78;5030208;28;20374;-75
2023/07/28 02:38:53;;;;;;;5.07;2.37;;;;;;;16.09;55.09;101120.88;5029322;28;20370;-75
2023/07/28 02:41:19;;;;;;;5.43;2.20;;;;;;;16.17;54.73;101126.91;5030246;28;20448;-75
2023/07/28 02:43:44;;;;;;;4.17;2.20;;;;;;;16.25;54.55;101132.06;5030234;28;20527;-75
2023/07/28 02:46:09;;;;;;;4.90;2.28;;;;;;;16.37;53.99;101121.66;5030093;28;20402;-75
2023/07/28 02:48:35;;;;;;;5.27;2.30;;;;;;;16.32;54.24;101125.94;5030174;28;20394;-75
2023/07/28 02:51:00;;;;;;;4.93;2.30;;;;;;;16.49;53.67;101123.75;5029913;28;20401;-77
2023/07/28 02:53:26;;;;;;;4.20;2.17;;;;;;;16.49;53.63;101126.44;5030197;28;20673;-75
2023/07/28 02:55:51;;;;;;;6.07;2.50;;;;;;;16.48;53.60;101119.44;5030102;28;20386;-75
2023/07/28 02:58:17;;;;;;;4.93;2.40;;;;;;;16.43;53.61;101126.19;5029944;28;20483;-75
2023/07/28 03:00:44;;;;;;;6.97;2.60;;;;;;;16.57;53.18;101123.59;5031981;28;20782;-75
2023/07/28 03:03:11;;;;;;;3.97;2.17;;;;;;;16.64;52.96;101127.13;5034184;28;20672;-75
2023/07/28 03:05:37;;;;;;;4.75;2.33;;;;;;;16.58;53.46;101134.09;5033561;28;20406;-75
2023/07/28 03:08:04;;;;;;;3.83;2.20;;;;;;;16.53;53.29;101125.00;5033887;28;20888;-74
2023/07/28 03:10:29;;;;;;;5.00;2.13;;;;;;;16.35;54.09;101138.91;5034036;28;20389;-75
2023/07/28 03:12:55;;;;;;;4.82;2.22;;;;;;;16.31;54.28;101134.97;5032972;28;20386;-74
2023/07/28 03:15:22;;;;;;;3.90;2.30;;;;;;;16.25;54.54;101140.09;5033904;28;20374;-74
2023/07/28 03:17:50;;;;;;;8.20;2.40;;;;;;;16.35;54.23;101139.75;5032935;28;20393;-75
2023/07/28 03:20:16;;;;;;;3.65;2.10;;;;;;;16.50;53.75;101144.16;5032589;28;20464;-75
2023/07/28 03:22:42;;;;;;;3.63;2.13;;;;;;;16.61;53.05;101133.69;5034079;28;20751;-75
2023/07/28 03:25:08;;;;;;;4.60;2.30;;;;;;;16.76;52.86;101138.06;5032825;28;20410;-76
2023/07/28 03:27:34;;;;;;;4.03;2.20;;;;;;;16.90;52.47;101138.97;5033616;28;20374;-74
2023/07/28 03:30:00;;;;;;;7.30;2.50;;;;;;;16.98;52.43;101147.66;5033611;28;20379;-74
2023/07/28 03:32:25;;;;;;;4.78;2.13;;;;;;;17.10;52.20;101150.56;5033228;28;20382;-75
2023/07/28 03:34:51;;;;;;;4.53;2.40;;;;;;;17.19;51.91;101152.03;5032736;28;20383;-74
2023/07/28 03:37:16;;;;;;;7.10;2.80;;;;;;;17.29;51.88;101162.38;5032874;28;20917;-74
2023/07/28 03:39:42;;;;;;;5.63;2.40;;;;;;;17.23;51.96;101148.94;5032782;28;21097;-75
2023/07/28 03:42:07;;;;;;;3.77;2.27;;;;;;;17.27;51.92;101152.84;5032775;28;20930;-74
2023/07/28 03:44:33;;;;;;;5.82;2.60;;;;;;;17.38;51.70;101163.81;5033002;28;20436;-74
2023/07/28 03:46:59;;;;;;;6.18;2.20;;;;;;;17.46;51.86;101167.34;5033139;28;20906;-74
2023/07/28 03:49:25;;;;;;;4.50;2.40;;;;;;;17.44;51.55;101156.81;5032912;28;20417;-76
2023/07/28 03:51:50;;;;;;;3.60;2.10;;;;;;;17.54;51.51;101165.28;5033109;28;20402;-74
2023/07/28 03:54:16;;;;;;;4.60;2.50;;;;;;;17.61;51.21;101167.97;5032207;28;20382;-74
2023/07/28 03:56:41;;;;;;;5.83;2.63;;;;;;;17.75;51.04;101158.91;5033071;28;20440;-74
2023/07/28 03:59:07;;;;;;;4.57;2.40;;;;;;;17.91;50.76;101167.56;5032864;28;20406;-74
2023/07/28 04:01:32;;;;;;;5.97;2.50;;;;;;;18.01;50.43;101159.94;5043194;28;20493;-75
2023/07/28 04:03:58;;;;;;;4.70;2.47;;;;;;;18.08;50.26;101163.44;5052930;28;20495;-75
2023/07/28 04:06:43;;;;;;;5.00;2.50;;;;;;;18.13;50.23;101165.47;5053105;28;20892;-75
2023/07/28 04:09:09;;;;;;;5.70;2.30;;;;;;;18.07;50.14;101167.16;5052004;28;20396;-75
2023/07/28 04:11:35;;;;;;;6.38;2.50;;;;;;;18.20;49.97;101173.53;5050732;28;20380;-75
2023/07/28 04:14:00;;;;;;;5.10;2.67;;;;;;;18.37;49.89;101164.00;5053251;28;20468;-75
2023/07/28 04:16:26;;;;;;;5.50;2.67;;;;;;;18.47;49.60;101163.53;5053901;28;20865;-75
2023/07/28 04:18:51;;;;;;;7.20;2.60;;;;;;;18.60;49.25;101168.03;5053490;28;20391;-74
2023/07/28 04:21:17;;;;;;;7.23;2.50;;;;;;;18.75;48.79;101165.94;5052883;28;20865;-74
2023/07/28 04:23:43;;;;;;;4.70;2.65;;;;;;;18.86;48.39;101165.28;5052702;28;20396;-74
2023/07/28 04:26:09;;;;;;;7.40;2.60;;;;;;;18.97;48.05;101165.66;5052377;28;20397;-75
2023/07/28 04:28:34;;;;;;;5.30;2.50;;;;;;;19.02;47.86;101155.09;5052290;28;20384;-74
2023/07/28 04:30:59;;;;;;;4.55;2.60;;;;;;;19.08;47.81;101164.97;5052310;28;20376;-74
2023/07/28 04:33:25;;;;;;;4.27;2.30;;;;;;;19.19;47.76;101158.91;5051959;28;20365;-74
2023/07/28 04:35:50;;;;;;;4.50;2.40;;;;;;;19.26;47.33;101156.19;5052248;28;20405;-74
2023/07/28 04:38:17;;;;;;;5.45;2.55;;;;;;;19.38;47.21;101145.56;5052307;28;20361;-74
2023/07/28 04:40:42;;;;;;;5.35;2.55;;;;;;;19.52;46.90;101159.72;5053163;28;20377;-75
2023/07/28 04:43:08;;;;;;;5.50;2.47;;;;;;;19.56;46.96;101160.94;5053138;28;20368;-75
2023/07/28 04:45:33;;;;;;;4.63;2.47;;;;;;;19.75;46.56;101159.97;5053074;28;20769;-74
2023/07/28 04:47:59;;;;;;;10.53;2.70;;;;;;;19.93;46.12;101164.56;5052691;28;20380;-75
2023/07/28 04:50:24;;;;;;;3.88;2.33;;;;;;;19.96;46.00;101150.69;5052909;28;20702;-75
2023/07/28 04:52:50;;;;;;;4.93;2.20;;;;;;;20.18;45.79;101156.47;5050422;28;20391;-75
2023/07/28 04:55:15;;;;;;;6.43;2.67;;;;;;;20.27;45.34;101143.53;5024109;28;20520;-73
2023/07/28 04:57:41;;;;;;;4.15;2.30;;;;;;;20.27;45.23;101148.91;5021889;28;20494;-75
2023/07/28 05:00:07;;;;;;;4.10;2.53;;;;;;;20.28;45.00;101147.06;5025680;28;20743;-75
2023/07/28 05:02:34;;;;;;;4.97;2.60;;;;;;;20.32;45.02;101145.56;5029312;28;20401;-75
2023/07/28 05:04:59;;;;;;;5.75;2.45;;;;;;;20.39;44.87;101147.13;5039348;28;20384;-75
2023/07/28 05:07:25;;;;;;;6.67;2.67;;;;;;;20.41;44.61;101144.22;5049734;28;20387;-75
2023/07/28 05:09:50;;;;;;;3.75;2.17;;;;;;;20.55;44.40;101144.91;5050274;28;20377;-75
2023/07/28 05:12:15;;;;;;;3.67;2.53;;;;;;;20.56;44.35;101144.69;5051866;28;20384;-76
2023/07/28 05:14:41;;;;;;;9.43;2.53;;;;;;;20.70;44.23;101153.44;5042268;28;20382;-75
2023/07/28 05:17:07;;;;;;;4.70;2.90;;;;;;;20.94;43.69;101148.13;5047464;28;20861;-75
2023/07/28 05:19:32;;;;;;;4.27;2.20;;;;;;;21.16;43.09;101143.91;5052505;28;20381;-75
2023/07/28 05:21:58;;;;;;;3.95;2.60;;;;;;;21.27;42.95;101131.50;5051606;28;20868;-76
2023/07/28 05:24:23;;;;;;;4.93;2.33;;;;;;;21.57;42.62;101142.25;5051511;28;20377;-75
2023/07/28 05:26:49;;;;;;;4.20;2.20;;;;;;;21.71;41.87;101137.44;5050868;28;20400;-75
2023/07/28 05:29:14;;;;;;;4.60;2.40;;;;;;;21.71;41.93;101140.13;5051695;28;20377;-75
2023/07/28 05:31:40;;;;;;;5.77;2.10;;;;;;;21.81;41.64;101134.19;5050451;28;20454;-74
2023/07/28 05:34:05;;;;;;;2.67;2.03;;;;;;;22.05;41.31;101140.38;5051144;28;20412;-75
2023/07/28 05:36:30;;;;;;;3.60;2.00;;;;;;;22.36;40.99;101135.66;5044165;28;20365;-75
2023/07/28 05:38:57;;;;;;;4.13;2.27;;;;;;;22.51;40.53;101133.28;5051596;28;20464;-74
2023/07/28 05:41:24;;;;;;;4.53;2.00;;;;;;;22.61;40.02;101119.16;5051593;28;20385;-75
2023/07/28 05:43:50;;;;;;;6.60;2.47;;;;;;;22.80;39.99;101130.59;5052064;28;20388;-75
2023/07/28 05:46:15;;;;;;;4.60;2.20;;;;;;;22.80;39.73;101129.78;5050843;28;20753;-75
2023/07/28 05:48:41;;;;;;;3.95;2.15;;;;;;;22.76;40.07;101110.53;5051241;28;20794;-75
2023/07/28 05:51:06;;;;;;;2.47;2.00;;;;;;;22.83;40.47;101115.78;5051999;28;20379;-75
2023/07/28 05:53:32;;;;;;;4.17;2.03;;;;;;;23.10;40.41;101113.31;5052808;28;20408;-74
2023/07/28 05:55:58;;;;;;;3.90;2.60;;;;;;;23.33;40.33;101114.25;5050724;28;20384;-75
2023/07/28 05:58:24;;;;;;;4.20;2.10;;;;;;;23.41;40.06;101121.97;5051671;28;20466;-74
2023/07/28 06:00:49;;;;;;;4.00;2.03;;;;;;;23.41;40.17;101121.97;5051031;28;20385;-74
2023/07/28 06:03:15;;;;;;;5.23;2.07;;;;;;;23.52;40.33;101112.13;5051078;28;21044;-75
2023/07/28 06:05:42;;;;;;;4.00;2.00;;;;;;;23.61;40.39;101119.56;5050381;28;20479;-76
2023/07/28 06:08:07;;;;;;;3.83;2.23;;;;;;;23.70;40.10;101113.72;5050400;28;20384;-77
2023/07/28 06:10:34;;;;;;;3.90;2.00;;;;;;;23.71;40.34;101113.47;5051756;28;20453;-75
2023/07/28 06:12:59;;;;;;;3.70;1.85;;;;;;;23.91;40.10;101118.41;5021308;28;20400;-74
2023/07/28 06:15:24;;;;;;;8.70;3.10;;;;;;;24.07;39.92;101126.75;5031279;28;20405;-75
2023/07/28 06:17:50;;;;;;;4.60;2.10;;;;;;;24.19;39.66;101112.03;5032746;28;20448;-75
2023/07/28 06:20:16;;;;;;;6.10;2.10;;;;;;;24.43;39.52;101111.75;5026255;28;20380;-74
2023/07/28 06:22:41;;;;;;;3.70;2.60;;;;;;;24.52;39.49;101115.66;5016583;28;20765;-77
2023/07/28 06:25:07;;;;;;;4.28;2.00;;;;;;;24.42;39.01;101120.97;5030429;28;20402;-75
2023/07/28 06:27:32;;;;;;;3.40;1.93;;;;;;;24.26;39.33;101114.56;5027236;28;20811;-75
2023/07/28 06:29:58;;;;;;;3.92;2.20;;;;;;;24.28;38.96;101117.81;5031922;28;20370;-75
2023/07/28 06:32:23;;;;;;;3.57;2.03;;;;;;;24.16;39.43;101123.34;5030296;28;20382;-74
2023/07/28 06:34:51;;;;;;;4.93;2.07;;;;;;;24.30;39.25;101115.69;5031072;28;20386;-73
2023/07/28 06:37:17;;;;;;;3.08;2.17;;;;;;;24.57;38.63;101113.03;5049541;28;20374;-74
2023/07/28 06:39:42;;;;;;;15.60;4.10;;;;;;;24.93;38.73;101121.56;5034949;28;20385;-73
2023/07/28 06:42:08;;;;;;;7.73;2.57;;;;;;;25.08;38.52;101120.88;5038922;28;20397;-73
2023/07/28 06:44:33;;;;;;;7.20;2.65;;;;;;;25.30;38.49;101118.13;5025395;28;20836;-74
2023/07/28 06:46:58;;;;;;;5.80;2.10;;;;;;;25.41;38.34;101121.75;5022055;28;20392;-74
2023/07/28 06:49:24;;;;;;;4.10;2.17;;;;;;;25.42;38.21;101125.28;5021381;28;20400;-75
2023/07/28 06:51:49;;;;;;;3.23;1.80;;;;;;;25.38;38.11;101117.63;5024530;28;20878;-75
2023/07/28 06:54:15;;;;;;;3.05;2.08;;;;;;;25.43;37.70;101129.63;5037309;28;20380;-76
2023/07/28 06:56:40;;;;;;;3.42;1.80;;;;;;;25.50;37.52;101122.91;5013149;28;20387;-74
2023/07/28 06:59:07;;;;;;;4.30;2.30;;;;;;;25.48;37.87;101118.78;5015002;28;20422;-76
2023/07/28 07:01:32;;;;;;;4.18;2.00;;;;;;;25.55;38.08;101122.94;5011777;28;20732;-76
2023/07/28 07:03:58;;;;;;;4.75;2.22;;;;;;;25.66;38.14;101126.53;5010947;28;21068;-75
2023/07/28 07:06:23;;;;;;;5.77;2.00;;;;;;;25.71;38.09;101128.47;5011391;28;20396;-75
2023/07/28 07:08:49;;;;;;;5.97;2.00;;;;;;;25.88;37.72;101123.69;5012941;28;20471;-76
2023/07/28 07:11:15;;;;;;;4.37;2.00;;;;;;;25.97;37.62;101132.19;5011370;28;20445;-75
2023/07/28 07:13:40;;;;;;;2.90;1.85;;;;;;;25.96;37.54;101132.47;5015084;28;20380;-74
2023/07/28 07:16:15;;;;;;;5.63;2.40;;;;;;;26.03;37.35;101136.56;5014772;28;20395;-75
2023/07/28 07:18:40;;;;;;;5.25;2.10;;;;;;;26.08;37.04;101127.63;5013697;28;20380;-75
2023/07/28 07:21:06;;;;;;;5.50;2.10;;;;;;;26.15;36.84;101130.94;5013059;28;20379;-74
2023/07/28 07:23:31;;;;;;;5.60;2.67;;;;;;;26.34;36.58;101131.28;5029617;28;20391;-75
2023/07/28 07:25:57;;;;;;;10.30;3.60;;;;;;;26.38;36.22;101140.56;5014499;28;20415;-76
2023/07/28 07:28:22;;;;;;;3.63;2.30;;;;;;;26.37;35.89;101138.09;5014728;28;20392;-76
2023/07/28 07:30:48;;;;;;;4.60;2.13;;;;;;;26.41;35.38;101131.03;5014334;28;20506;-75
2023/07/28 07:33:13;;;;;;;3.37;1.80;;;;;;;26.47;35.08;101136.25;5015527;28;20384;-75
2023/07/28 07:35:39;;;;;;;6.07;2.93;;;;;;;26.55;35.17;101128.66;5014650;28;20710;-76
2023/07/28 07:38:08;;;;;;;5.25;2.00;;;;;;;26.64;33.97;101130.59;5030932;28;20387;-76
2023/07/28 07:40:37;;;;;;;2.20;2.00;;;;;;;26.69;33.77;101133.34;5014108;28;20458;-76
2023/07/28 07:43:03;;;;;;;3.55;2.33;;;;;;;26.80;32.91;101133.38;5016539;28;20384;-75
2023/07/28 07:45:32;;;;;;;3.67;1.73;;;;;;;27.09;31.45;101130.97;5021207;28;20414;-74
2023/07/28 07:47:59;;;;;;;2.80;1.42;;;;;;;27.16;31.07;101133.44;5026152;28;20412;-75
2023/07/28 07:50:25;;;;;;;2.55;1.60;;;;;;;27.15;30.33;101123.63;5021574;28;20384;-75
2023/07/28 07:52:50;;;;;;;4.45;1.90;;;;;;;26.80;31.26;101131.47;5014279;28;20753;-74
2023/07/28 07:55:16;;;;;;;2.50;1.67;;;;;;;27.09;31.31;101123.59;5013703;28;20463;-76
2023/07/28 07:57:42;;;;;;;2.80;1.50;;;;;;;27.35;30.98;101120.94;5014454;28;20408;-79
2023/07/28 08:00:08;;;;;;;4.75;1.92;;;;;;;27.41;30.28;101124.47;5015212;28;20737;-76
2023/07/28 08:02:34;;;;;;;2.13;1.60;;;;;;;27.31;29.50;101121.75;5014778;28;20553;-76
2023/07/28 08:05:00;;;;;;;4.47;1.58;;;;;;;27.36;29.95;101119.03;5014969;28;20446;-76
2023/07/28 08:07:26;;;;;;;3.73;1.60;;;;;;;27.51;29.09;101115.47;5018046;28;20501;-76
2023/07/28 08:09:51;;;;;;;3.50;1.60;;;;;;;27.47;28.48;101117.94;5030340;28;20410;-77
2023/07/28 08:12:17;;;;;;;3.77;1.37;;;;;;;27.59;27.92;101117.66;5022053;28;20406;-75
2023/07/28 08:14:43;;;;;;;6.43;3.45;;;;;;;27.51;27.62;101121.72;5022391;28;20719;-75
2023/07/28 08:17:09;;;;;;;11.10;4.90;;;;;;;27.26;27.75;101107.06;5024675;28;20415;-75
2023/07/28 08:19:35;;;;;;;1.70;1.60;;;;;;;27.53;27.33;101111.41;5027766;28;21104;-75
2023/07/28 08:22:03;;;;;;;5.67;2.80;;;;;;;27.70;27.44;101104.84;5027190;28;20854;-76
2023/07/28 08:24:29;;;;;;;2.42;1.42;;;;;;;27.87;26.79;101118.94;5026606;28;20392;-75
2023/07/28 08:26:55;;;;;;;3.23;2.00;;;;;;;27.98;27.42;101111.59;5025952;28;20504;-75
2023/07/28 08:29:20;;;;;;;2.20;1.40;;;;;;;28.11;26.60;101118.34;5028845;28;20489;-75
2023/07/28 08:31:46;;;;;;;2.33;1.50;;;;;;;28.22;26.91;101112.59;5023707;28;20994;-76
2023/07/28 08:34:12;;;;;;;2.10;1.50;;;;;;;28.39;26.97;101114.16;5027087;28;20412;-76
2023/07/28 08:36:38;;;;;;;2.17;1.83;;;;;;;28.48;27.92;101104.28;5031893;28;20379;-75
2023/07/28 08:39:05;;;;;;;3.10;2.05;;;;;;;28.51;28.68;101106.47;5030603;28;20460;-74
2023/07/28 08:41:31;;;;;;;2.72;1.80;;;;;;;28.59;28.65;101110.53;5029282;28;20394;-75
2023/07/28 08:43:57;;;;;;;4.25;1.90;;;;;;;28.73;28.76;101106.06;5028904;28;20383;-74
2023/07/28 08:46:23;;;;;;;4.47;2.22;;;;;;;28.78;28.74;101107.97;5031867;28;20507;-76
2023/07/28 08:48:48;;;;;;;4.38;1.90;;;;;;;28.70;29.12;101103.94;5033294;28;20445;-75
2023/07/28 08:51:14;;;;;;;5.68;1.80;;;;;;;28.74;28.92;101094.06;5033339;28;20389;-75
2023/07/28 08:53:40;;;;;;;3.40;1.90;;;;;;;28.72;28.98;101098.16;5032876;28;20727;-75
2023/07/28 08:56:06;;;;;;;2.58;2.00;;;;;;;28.92;29.53;101095.31;5032820;28;20375;-76
2023/07/28 08:58:32;;;;;;;1.83;1.60;;;;;;;29.10;29.07;101088.34;5032277;28;20438;-76
2023/07/28 09:01:01;;;;;;;3.13;1.60;;;;;;;29.01;28.07;101089.22;5032753;28;20390;-75
2023/07/28 09:03:27;;;;;;;3.23;1.63;;;;;;;29.02;28.43;101091.69;5033350;28;20390;-77
2023/07/28 09:05:59;;;;;;;2.83;1.67;;;;;;;29.06;28.23;101087.28;5033837;28;20489;-76
2023/07/28 09:08:25;;;;;;;2.90;1.70;;;;;;;29.09;27.77;101078.53;5032260;28;20902;-78
2023/07/28 09:10:51;;;;;;;12.65;2.30;;;;;;;29.24;27.96;101082.25;5032745;28;20414;-76
2023/07/28 09:13:18;;;;;;;2.03;1.60;;;;;;;29.30;28.17;101071.00;5032491;28;20461;-74
2023/07/28 09:15:45;;;;;;;4.03;1.50;;;;;;;29.28;25.99;101075.94;5032726;28;20382;-75
2023/07/28 09:18:13;;;;;;;2.40;1.50;;;;;;;29.34;26.02;101074.78;5032893;28;20382;-75
2023/07/28 09:20:43;;;;;;;4.22;1.60;;;;;;;29.42;25.71;101075.25;5032160;28;20414;-75
2023/07/28 09:23:10;;;;;;;4.25;1.60;;;;;;;29.47;26.18;101078.75;5032230;28;20748;-75
2023/07/28 09:25:37;;;;;;;2.50;1.52;;;;;;;29.57;26.25;101072.38;5032245;28;20403;-75
2023/07/28 09:30:49;;;;;;;2.90;1.50;;;;;;;29.67;25.78;101072.25;5032863;28;20897;-76
2023/07/28 09:33:30;;;;;;;3.90;1.60;;;;;;;29.82;25.80;101063.13;5038033;28;20398;-75
2023/07/28 09:35:55;;;;;;;2.40;1.33;;;;;;;29.80;25.54;101056.31;5042685;28;20381;-75
2023/07/28 09:38:22;;;;;;;1.90;1.40;;;;;;;29.85;25.19;101050.78;5052540;28;20379;-75
2023/07/28 09:40:49;;;;;;;3.80;1.73;;;;;;;29.92;25.28;101056.72;5066114;28;20393;-76
2023/07/28 09:43:14;;;;;;;3.10;1.38;;;;;;;30.02;25.18;101053.84;5051549;28;20391;-76
2023/07/28 09:45:42;;;;;;;3.00;1.50;;;;;;;30.00;24.71;101061.53;5051722;28;20397;-75
2023/07/28 09:48:10;;;;;;;5.47;1.70;;;;;;;29.89;25.11;101049.91;5050702;28;20434;-76
2023/07/28 09:50:38;;;;;;;3.38;1.90;;;;;;;30.10;25.34;101052.38;5051259;28;20388;-75
2023/07/28 09:53:04;;;;;;;3.40;1.40;;;;;;;30.01;24.69;101043.22;5048902;28;20380;-76
2023/07/28 09:55:30;;;;;;;1.95;1.55;;;;;;;29.91;24.72;101044.97;5029636;28;20384;-77
2023/07/28 09:57:59;;;;;;;1.80;1.30;;;;;;;30.06;25.27;101041.22;5050123;28;20401;-75
2023/07/28 10:00:25;;;;;;;2.28;1.20;;;;;;;30.15;25.47;101033.19;5048786;28;20499;-76
2023/07/28 10:02:52;;;;;;;1.50;1.20;;;;;;;30.27;25.19;101030.81;5030822;28;20453;-75
2023/07/28 10:05:18;;;;;;;3.90;1.30;;;;;;;30.35;24.93;101032.09;5046663;28;20438;-75
2023/07/28 10:07:47;;;;;;;2.22;1.30;;;;;;;30.31;24.57;101026.38;5051636;28;20482;-75
2023/07/28 10:10:14;;;;;;;3.38;1.20;;;;;;;30.23;24.68;101027.06;5049886;28;20854;-75
2023/07/28 10:12:47;;;;;;;1.73;1.30;;;;;;;30.35;24.75;101034.84;5051574;28;20385;-76
2023/07/28 10:15:18;;;;;;;3.83;1.50;;;;;;;30.31;25.21;101020.91;5050871;28;20446;-76
2023/07/28 10:17:52;;;;;;;1.40;1.27;;;;;;;30.36;25.21;101019.25;5051050;28;20534;-76
2023/07/28 10:20:38;;;;;;;3.45;1.67;;;;;;;30.52;24.88;101023.38;5049388;28;20389;-75
2023/07/28 10:23:07;;;;;;;2.03;1.40;;;;;;;30.40;24.85;101017.56;5050839;28;20559;-74
2023/07/28 10:25:35;;;;;;;2.78;1.40;;;;;;;30.15;25.22;101015.97;5050384;28;20730;-76
2023/07/28 10:28:02;;;;;;;4.30;2.23;;;;;;;30.44;25.43;101013.91;5050499;28;20392;-75
2023/07/28 10:30:28;;;;;;;1.63;1.17;;;;;;;30.36;24.82;101003.66;5050181;28;20901;-77
2023/07/28 10:32:55;;;;;;;2.80;1.45;;;;;;;30.35;25.44;100999.28;5050734;28;20472;-76
2023/07/28 10:35:26;;;;;;;1.27;1.10;;;;;;;30.40;24.98;100998.41;5051213;28;20384;-75
2023/07/28 10:37:56;;;;;;;3.58;1.50;;;;;;;30.33;24.53;100996.00;5052331;28;20372;-77
2023/07/28 10:40:28;;;;;;;2.95;1.27;;;;;;;30.35;25.03;100987.53;5051848;28;20365;-75
2023/07/28 10:42:55;;;;;;;2.63;1.30;;;;;;;30.42;24.91;100985.25;5050731;28;20377;-75
2023/07/28 10:45:23;;;;;;;1.50;1.10;;;;;;;30.42;24.77;100982.50;5050687;28;20765;-76
2023/07/28 10:47:50;;;;;;;1.98;1.20;;;;;;;30.35;25.31;100982.06;5050987;28;20385;-74
2023/07/28 10:50:15;;;;;;;2.50;1.30;;;;;;;30.45;25.07;100987.38;5050177;28;20377;-74
2023/07/28 10:52:45;;;;;;;3.85;1.20;;;;;;;30.60;25.43;100970.72;5050336;28;20464;-75
2023/07/28 10:55:15;;;;;;;2.55;1.20;;;;;;;30.71;25.18;100965.09;5050570;28;20380;-74
2023/07/28 10:57:43;;;;;;;1.90;1.20;;;;;;;30.57;24.83;100970.50;5049965;28;20405;-74
2023/07/28 11:00:09;;;;;;;3.35;1.42;;;;;;;30.57;24.81;100965.84;5050158;28;20372;-75
2023/07/28 11:02:42;;;;;;;1.75;1.02;;;;;;;30.74;25.39;100959.00;5051056;28;20369;-75
2023/07/28 11:05:13;;;;;;;2.40;1.33;;;;;;;30.72;24.88;100964.78;5039351;28;20437;-75
2023/07/28 11:07:42;;;;;;;1.48;1.20;;;;;;;30.58;24.93;100964.75;5051066;28;20385;-73
2023/07/28 11:10:10;;;;;;;4.50;1.37;;;;;;;30.46;25.14;100958.91;5051549;28;20388;-75
2023/07/28 11:12:35;;;;;;;2.90;1.40;;;;;;;30.54;25.22;100954.69;5052285;28;20376;-75
2023/07/28 11:15:01;;;;;;;1.55;1.20;;;;;;;30.69;25.30;100946.22;5051804;28;20373;-75
2023/07/28 11:17:27;;;;;;;2.10;1.25;;;;;;;30.69;25.30;100947.03;5024981;28;20767;-75
2023/07/28 11:19:53;;;;;;;2.60;1.20;;;;;;;30.69;24.90;100938.81;5052109;28;20387;-74
2023/07/28 11:22:20;;;;;;;2.25;1.30;;;;;;;30.59;25.08;100938.19;5053879;28;20683;-75
2023/07/28 11:24:50;;;;;;;1.98;1.15;;;;;;;30.69;25.14;100938.00;5053470;28;20872;-76